createdAt,value
2018-06-03T00:02:24.538Z,55.57
2018-06-03T00:04:59.059Z,53.70
2018-06-03T00:07:33.359Z,53.73
2018-06-03T00:10:07.624Z,56.57
2018-06-03T00:12:41.935Z,52.20
2018-06-03T00:15:16.251Z,53.90
2018-06-03T00:17:50.653Z,51.73
2018-06-03T00:20:36.031Z,54.93
2018-06-03T00:23:10.219Z,57.40
2018-06-03T00:25:44.666Z,55.17
2018-06-03T00:28:19.020Z,56.03
2018-06-03T00:30:53.406Z,51.70
2018-06-03T00:33:27.924Z,60.27
2018-06-03T00:36:13.710Z,56.30
2018-06-03T00:38:48.017Z,55.90
2018-06-03T00:41:22.688Z,48.87
2018-06-03T00:43:57.289Z,57.63
2018-06-03T00:46:31.476Z,54.20
2018-06-03T00:49:05.856Z,53.00
2018-06-03T00:51:40.100Z,50.00
2018-06-03T00:54:14.395Z,49.40
2018-06-03T00:57:10.697Z,53.10
2018-06-03T00:59:45.024Z,51.97
2018-06-03T01:02:19.331Z,48.37
2018-06-03T01:04:53.677Z,54.13
2018-06-03T01:07:27.934Z,52.83
2018-06-03T01:10:02.262Z,56.07
2018-06-03T01:12:36.530Z,53.30
2018-06-03T01:15:10.732Z,54.00
2018-06-03T01:17:45.034Z,57.53
2018-06-03T01:20:19.318Z,54.37
2018-06-03T01:22:53.786Z,52.80
2018-06-03T01:25:28.158Z,49.87
2018-06-03T01:28:02.450Z,53.97
2018-06-03T01:30:36.815Z,51.03
2018-06-03T01:33:11.095Z,56.37
2018-06-03T01:35:45.519Z,49.47
2018-06-03T01:38:19.805Z,54.03
2018-06-03T01:40:54.039Z,56.93
2018-06-03T01:43:27.997Z,56.17
2018-06-03T01:46:02.231Z,50.47
2018-06-03T01:48:36.567Z,57.83
2018-06-03T01:51:10.824Z,57.10
2018-06-03T01:53:45.096Z,52.03
2018-06-03T01:56:19.431Z,50.10
2018-06-03T01:58:53.570Z,46.17
2018-06-03T02:01:27.856Z,49.63
2018-06-03T02:04:02.072Z,49.27
2018-06-03T02:06:36.568Z,47.83
2018-06-03T02:09:10.649Z,49.70
2018-06-03T02:11:44.913Z,45.23
2018-06-03T02:14:19.185Z,48.50
2018-06-03T02:16:53.517Z,44.23
2018-06-03T02:19:27.716Z,45.53
2018-06-03T02:22:01.958Z,43.97
2018-06-03T02:24:36.123Z,45.63
2018-06-03T02:27:10.518Z,44.83
2018-06-03T02:29:44.825Z,50.97
2018-06-03T02:32:19.001Z,46.87
2018-06-03T02:34:53.281Z,45.20
2018-06-03T02:37:27.476Z,51.53
2018-06-03T02:40:01.702Z,60.93
2018-06-03T02:42:36.069Z,54.47
2018-06-03T02:45:10.294Z,56.17
2018-06-03T02:47:44.668Z,60.90
2018-06-03T02:50:19.030Z,55.83
2018-06-03T02:52:53.303Z,58.03
2018-06-03T02:55:27.627Z,55.07
2018-06-03T02:58:01.926Z,54.07
2018-06-03T03:00:36.243Z,48.97
2018-06-03T03:03:10.566Z,48.63
2018-06-03T03:05:44.714Z,50.93
2018-06-03T03:08:19.020Z,46.77
2018-06-03T03:10:53.531Z,51.27
2018-06-03T03:13:27.663Z,49.37
2018-06-03T03:16:02.137Z,52.47
2018-06-03T03:18:36.576Z,43.37
2018-06-03T03:21:10.749Z,42.90
2018-06-03T03:23:45.179Z,48.47
2018-06-03T03:26:19.464Z,45.63
2018-06-03T03:28:53.766Z,46.50
2018-06-03T03:31:27.929Z,44.03
2018-06-03T03:34:02.303Z,45.17
2018-06-03T03:36:36.748Z,45.60
2018-06-03T03:39:11.111Z,45.43
2018-06-03T03:41:45.379Z,49.70
2018-06-03T03:44:19.704Z,50.20
2018-06-03T03:46:54.013Z,53.33
2018-06-03T03:49:28.293Z,48.70
2018-06-03T03:52:02.517Z,50.27
2018-06-03T03:54:36.680Z,50.00
2018-06-03T03:57:10.911Z,51.00
2018-06-03T03:59:45.228Z,52.60
2018-06-03T04:02:19.687Z,49.60
2018-06-03T04:04:53.823Z,50.40
2018-06-03T04:07:27.963Z,63.50
2018-06-03T04:10:02.262Z,50.60
2018-06-03T04:12:36.535Z,57.43
2018-06-03T04:15:10.738Z,50.13
2018-06-03T04:17:45.030Z,46.33
2018-06-03T04:20:19.307Z,48.40
2018-06-03T04:22:53.618Z,50.13
2018-06-03T04:25:27.743Z,50.43
2018-06-03T04:28:02.023Z,55.30
2018-06-03T04:30:36.294Z,58.10
2018-06-03T04:33:10.558Z,54.33
2018-06-03T04:35:44.871Z,51.37
2018-06-03T04:38:19.210Z,64.70
2018-06-03T04:40:53.471Z,60.97
2018-06-03T04:43:27.644Z,61.00
2018-06-03T04:46:01.975Z,64.77
2018-06-03T04:48:36.150Z,67.27
2018-06-03T04:51:10.432Z,65.40
2018-06-03T04:53:44.839Z,63.07
2018-06-03T04:56:19.261Z,62.53
2018-06-03T04:58:53.479Z,68.37
2018-06-03T05:01:27.719Z,62.33
2018-06-03T05:04:02.007Z,59.30
2018-06-03T05:06:36.359Z,65.40
2018-06-03T05:09:10.759Z,59.67
2018-06-03T05:11:45.032Z,60.50
2018-06-03T05:14:19.451Z,61.37
2018-06-03T05:16:53.648Z,59.07
2018-06-03T05:19:28.128Z,62.67
2018-06-03T05:22:02.306Z,60.40
2018-06-03T05:24:36.673Z,55.03
2018-06-03T05:27:10.835Z,63.37
2018-06-03T05:29:45.167Z,61.57
2018-06-03T05:32:19.467Z,60.70
2018-06-03T05:34:53.875Z,55.90
2018-06-03T05:37:28.183Z,64.30
2018-06-03T05:40:02.368Z,65.13
2018-06-03T05:42:36.482Z,64.77
2018-06-03T05:45:10.673Z,71.33
2018-06-03T05:47:44.874Z,66.50
2018-06-03T05:50:19.151Z,63.53
2018-06-03T05:52:53.445Z,71.63
2018-06-03T05:55:27.703Z,65.03
2018-06-03T05:58:01.973Z,67.27
2018-06-03T06:00:36.174Z,67.83
2018-06-03T06:03:10.599Z,64.97
2018-06-03T06:05:44.889Z,67.20
2018-06-03T06:08:19.033Z,62.30
2018-06-03T06:10:53.429Z,66.60
2018-06-03T06:13:27.734Z,63.47
2018-06-03T06:16:02.072Z,64.10
2018-06-03T06:18:36.359Z,62.23
2018-06-03T06:21:10.511Z,61.27
2018-06-03T06:23:44.705Z,66.37
2018-06-03T06:26:18.930Z,65.80
2018-06-03T06:28:53.246Z,66.77
2018-06-03T06:31:27.596Z,67.77
2018-06-03T06:34:02.044Z,67.90
2018-06-03T06:36:36.320Z,58.60
2018-06-03T06:39:10.813Z,62.77
2018-06-03T06:41:45.024Z,71.27
2018-06-03T06:44:19.206Z,64.60
2018-06-03T06:46:53.349Z,62.73
2018-06-03T06:49:27.684Z,62.30
2018-06-03T06:52:01.996Z,67.10
2018-06-03T06:54:36.235Z,64.77
2018-06-03T06:57:10.434Z,64.33
2018-06-03T06:59:44.623Z,62.00
2018-06-03T07:02:18.940Z,65.03
2018-06-03T07:04:53.358Z,64.20
2018-06-03T07:07:27.780Z,59.67
2018-06-03T07:10:02.130Z,67.90
2018-06-03T07:12:36.459Z,64.43
2018-06-03T07:15:10.702Z,65.90
2018-06-03T07:17:45.021Z,62.57
2018-06-03T07:20:19.383Z,73.30
2018-06-03T07:22:53.583Z,66.43
2018-06-03T07:25:27.796Z,57.77
2018-06-03T07:28:02.062Z,58.10
2018-06-03T07:30:36.343Z,48.90
2018-06-03T07:33:10.671Z,54.53
2018-06-03T07:35:44.857Z,56.33
2018-06-03T07:38:19.234Z,47.40
2018-06-03T07:40:53.682Z,43.50
2018-06-03T07:43:27.883Z,45.77
2018-06-03T07:46:02.391Z,44.37
2018-06-03T07:48:36.831Z,48.57
2018-06-03T07:51:11.277Z,44.93
2018-06-03T07:53:45.551Z,46.03
2018-06-03T07:56:19.772Z,43.80
2018-06-03T07:58:54.134Z,43.43
2018-06-03T08:01:28.637Z,42.17
2018-06-03T08:04:02.871Z,41.67
2018-06-03T08:06:37.269Z,35.93
2018-06-03T08:09:11.599Z,36.47
2018-06-03T08:11:45.899Z,33.77
2018-06-03T08:14:20.148Z,37.13
2018-06-03T08:16:54.378Z,32.63
2018-06-03T08:19:28.688Z,36.27
2018-06-03T08:22:02.908Z,33.67
2018-06-03T08:24:37.155Z,37.53
2018-06-03T08:27:11.628Z,33.17
2018-06-03T08:29:45.914Z,33.50
2018-06-03T08:32:20.308Z,35.03
2018-06-03T08:34:54.615Z,34.27
2018-06-03T08:37:29.140Z,33.67
2018-06-03T08:40:03.472Z,34.10
2018-06-03T08:42:37.654Z,35.17
2018-06-03T08:45:12.015Z,31.50
2018-06-03T08:47:46.178Z,33.30
2018-06-03T08:50:20.610Z,27.73
2018-06-03T08:52:54.944Z,33.93
2018-06-03T08:55:29.246Z,24.60
2018-06-03T08:58:03.459Z,30.70
2018-06-03T09:00:37.914Z,24.00
2018-06-03T09:03:12.271Z,24.30
2018-06-03T09:05:46.731Z,26.10
2018-06-03T09:08:20.958Z,32.13
2018-06-03T09:10:55.268Z,27.97
2018-06-03T09:13:29.501Z,27.57
2018-06-03T09:16:03.859Z,28.90
2018-06-03T09:18:38.016Z,31.23
2018-06-03T09:21:12.504Z,28.00
2018-06-03T09:23:46.725Z,22.70
2018-06-03T09:26:21.134Z,27.30
2018-06-03T09:28:55.475Z,20.53
2018-06-03T09:31:29.813Z,23.17
2018-06-03T09:34:04.112Z,25.10
2018-06-03T09:36:38.511Z,21.40
2018-06-03T09:39:12.811Z,28.47
2018-06-03T09:41:47.113Z,25.93
2018-06-03T09:44:21.357Z,27.80
2018-06-03T09:46:55.526Z,24.97
2018-06-03T09:49:29.735Z,26.63
2018-06-03T09:52:04.043Z,26.27
2018-06-03T09:54:38.300Z,23.50
2018-06-03T09:57:12.625Z,22.37
2018-06-03T09:59:46.895Z,26.33
2018-06-03T10:02:21.218Z,26.80
2018-06-03T10:04:55.707Z,25.00
2018-06-03T10:07:29.998Z,26.23
2018-06-03T10:10:04.244Z,23.43
2018-06-03T10:12:38.570Z,27.53
2018-06-03T10:15:12.766Z,26.30
2018-06-03T10:17:46.870Z,24.93
2018-06-03T10:20:21.090Z,29.53
2018-06-03T10:22:55.434Z,24.00
2018-06-03T10:25:29.683Z,24.60
2018-06-03T10:28:04.269Z,24.70
2018-06-03T10:30:38.504Z,23.37
2018-06-03T10:33:12.697Z,25.87
2018-06-03T10:35:46.963Z,24.07
2018-06-03T10:38:21.351Z,25.73
2018-06-03T10:40:55.746Z,25.17
2018-06-03T10:43:30.037Z,23.90
2018-06-03T10:46:04.320Z,24.77
2018-06-03T10:48:38.550Z,24.33
2018-06-03T10:51:12.963Z,25.23
2018-06-03T10:53:47.187Z,25.87
2018-06-03T10:56:21.571Z,25.00
2018-06-03T10:58:55.903Z,23.40
2018-06-03T11:01:30.218Z,23.63
2018-06-03T11:04:04.471Z,21.07
2018-06-03T11:06:38.795Z,25.03
2018-06-03T11:09:13.153Z,21.90
2018-06-03T11:11:47.491Z,18.13
2018-06-03T11:14:21.720Z,17.73
2018-06-03T11:16:55.931Z,15.57
2018-06-03T11:19:30.130Z,16.97
2018-06-03T11:22:04.450Z,15.17
2018-06-03T11:24:38.692Z,15.13
2018-06-03T11:27:13.037Z,14.33
2018-06-03T11:29:47.279Z,16.70
2018-06-03T11:32:21.546Z,15.77
2018-06-03T11:34:55.825Z,16.63
2018-06-03T11:37:30.055Z,17.40
2018-06-03T11:40:04.355Z,16.90
2018-06-03T11:42:38.754Z,16.27
2018-06-03T11:45:13.107Z,14.87
2018-06-03T11:47:47.383Z,11.73
2018-06-03T11:50:21.706Z,10.07
2018-06-03T11:52:55.996Z,11.33
2018-06-03T11:55:30.254Z,12.10
2018-06-03T11:58:41.151Z,10.77
2018-06-03T12:01:15.430Z,10.70
2018-06-03T12:03:49.721Z,10.07
2018-06-03T12:06:24.038Z,9.67
2018-06-03T12:08:58.579Z,10.43
2018-06-03T12:11:32.775Z,9.97
2018-06-03T12:14:07.043Z,12.73
2018-06-03T12:16:41.264Z,12.90
2018-06-03T12:19:15.490Z,10.03
2018-06-03T12:21:49.847Z,11.67
2018-06-03T12:24:24.065Z,8.43
2018-06-03T12:26:58.332Z,11.47
2018-06-03T12:29:32.664Z,13.57
2018-06-03T12:32:06.911Z,15.13
2018-06-03T12:34:41.235Z,11.23
2018-06-03T12:37:15.422Z,11.60
2018-06-03T12:39:49.649Z,11.13
2018-06-03T12:42:23.990Z,10.10
2018-06-03T12:44:58.184Z,9.57
2018-06-03T12:47:32.397Z,9.77
2018-06-03T12:50:06.647Z,9.77
2018-06-03T12:52:40.966Z,10.13
2018-06-03T12:55:15.214Z,13.70
2018-06-03T12:57:49.602Z,10.90
2018-06-03T13:00:24.001Z,8.40
2018-06-03T13:02:58.363Z,11.73
2018-06-03T13:05:32.451Z,11.97
2018-06-03T13:08:06.649Z,9.93
2018-06-03T13:10:40.988Z,10.93
2018-06-03T13:13:15.243Z,9.80
2018-06-03T13:15:49.590Z,10.20
2018-06-03T13:18:23.896Z,10.63
2018-06-03T13:20:58.320Z,13.57
2018-06-03T13:23:32.623Z,15.67
2018-06-03T13:26:06.986Z,13.80
2018-06-03T13:28:41.611Z,15.13
2018-06-03T13:31:15.934Z,12.60
2018-06-03T13:33:50.215Z,11.30
2018-06-03T13:36:24.513Z,12.63
2018-06-03T13:38:58.848Z,12.27
2018-06-03T13:41:33.185Z,14.13
2018-06-03T13:44:07.475Z,12.97
2018-06-03T13:46:41.640Z,12.20
2018-06-03T13:49:16.547Z,10.50
2018-06-03T13:51:50.863Z,11.80
2018-06-03T13:54:25.029Z,11.50
2018-06-03T13:56:59.280Z,10.33
2018-06-03T13:59:33.453Z,11.37
2018-06-03T14:02:07.747Z,9.70
2018-06-03T14:04:41.919Z,10.07
2018-06-03T14:07:16.185Z,12.63
2018-06-03T14:09:50.358Z,10.87
2018-06-03T14:12:24.667Z,11.13
2018-06-03T14:14:58.818Z,9.37
2018-06-03T14:17:33.192Z,14.33
2018-06-03T14:20:07.619Z,14.30
2018-06-03T14:22:42.051Z,17.43
2018-06-03T14:25:16.351Z,18.30
2018-06-03T14:27:50.584Z,14.67
2018-06-03T14:30:24.930Z,21.83
2018-06-03T14:32:59.140Z,17.83
2018-06-03T14:35:33.628Z,17.23
2018-06-03T14:38:07.907Z,14.73
2018-06-03T14:40:42.244Z,14.60
2018-06-03T14:43:16.447Z,16.73
2018-06-03T14:45:50.584Z,16.77
2018-06-03T14:48:24.888Z,17.53
2018-06-03T14:50:59.158Z,23.83
2018-06-03T14:53:33.611Z,18.27
2018-06-03T14:56:07.949Z,24.97
2018-06-03T14:58:42.340Z,21.73
2018-06-03T15:01:16.491Z,20.83
2018-06-03T15:03:51.287Z,19.90
2018-06-03T15:06:25.599Z,22.90
2018-06-03T15:08:59.926Z,24.43
2018-06-03T15:11:34.451Z,21.07
2018-06-03T15:14:08.798Z,20.37
2018-06-03T15:16:43.028Z,21.07
2018-06-03T15:19:17.389Z,19.97
2018-06-03T15:21:51.679Z,23.00
2018-06-03T15:24:25.912Z,25.00
2018-06-03T15:27:00.188Z,23.77
2018-06-03T15:29:34.422Z,23.73
2018-06-03T15:32:08.705Z,21.93
2018-06-03T15:34:43.202Z,23.63
2018-06-03T15:37:17.603Z,22.40
2018-06-03T15:39:51.841Z,22.37
2018-06-03T15:42:26.103Z,24.73
2018-06-03T15:45:00.444Z,24.40
2018-06-03T15:47:34.743Z,27.27
2018-06-03T15:50:09.119Z,24.23
2018-06-03T15:52:43.424Z,22.30
2018-06-03T15:55:17.680Z,22.37
2018-06-03T15:57:51.863Z,19.53
2018-06-03T16:00:26.087Z,18.70
2018-06-03T16:03:00.484Z,20.53
2018-06-03T16:05:34.830Z,21.43
2018-06-03T16:08:09.227Z,22.47
2018-06-03T16:10:43.559Z,20.40
2018-06-03T16:13:17.738Z,20.93
2018-06-03T16:15:52.068Z,23.10
2018-06-03T16:18:26.503Z,19.30
2018-06-03T16:21:00.842Z,22.30
2018-06-03T16:23:35.139Z,20.70
2018-06-03T16:26:09.732Z,19.77
2018-06-03T16:28:44.108Z,20.37
2018-06-03T16:31:18.514Z,18.93
2018-06-03T16:33:52.705Z,19.77
2018-06-03T16:36:27.122Z,20.10
2018-06-03T16:39:01.289Z,19.17
2018-06-03T16:41:35.728Z,20.33
2018-06-03T16:44:10.074Z,20.23
2018-06-03T16:46:44.392Z,18.63
2018-06-03T16:49:18.807Z,20.43
2018-06-03T16:51:53.028Z,20.43
2018-06-03T16:54:27.426Z,19.17
2018-06-03T16:57:01.592Z,21.47
2018-06-03T16:59:35.976Z,17.40
2018-06-03T17:02:10.179Z,17.07
2018-06-03T17:04:44.600Z,17.13
2018-06-03T17:07:18.883Z,19.17
2018-06-03T17:09:53.224Z,18.13
2018-06-03T17:12:27.668Z,24.20
2018-06-03T17:15:02.180Z,19.00
2018-06-03T17:17:36.481Z,15.13
2018-06-03T17:20:10.823Z,15.13
2018-06-03T17:22:45.155Z,14.37
2018-06-03T17:25:19.482Z,14.87
2018-06-03T17:27:53.792Z,14.13
2018-06-03T17:30:28.051Z,16.13
2018-06-03T17:33:02.460Z,14.60
2018-06-03T17:35:36.910Z,14.83
2018-06-03T17:38:11.206Z,16.30
2018-06-03T17:40:45.496Z,14.27
2018-06-03T17:43:19.772Z,17.93
2018-06-03T17:45:56.293Z,15.17
2018-06-03T17:48:30.639Z,16.93
2018-06-03T17:51:04.954Z,13.70
2018-06-03T17:53:39.145Z,14.97
2018-06-03T17:56:13.558Z,17.07
2018-06-03T17:58:48.000Z,15.23
2018-06-03T18:01:22.432Z,14.33
2018-06-03T18:03:56.632Z,14.47
2018-06-03T18:06:30.980Z,14.67
2018-06-03T18:09:07.673Z,16.57
2018-06-03T18:11:41.851Z,15.77
2018-06-03T18:14:16.193Z,13.37
2018-06-03T18:16:50.501Z,17.67
2018-06-03T18:19:24.725Z,16.33
2018-06-03T18:21:58.974Z,17.57
2018-06-03T18:24:33.355Z,14.77
2018-06-03T18:27:08.744Z,15.87
2018-06-03T18:29:43.152Z,16.17
2018-06-03T18:32:17.410Z,13.83
2018-06-03T18:34:51.745Z,14.83
2018-06-03T18:37:25.882Z,17.93
2018-06-03T18:40:00.356Z,16.63
2018-06-03T18:42:34.531Z,15.27
2018-06-03T18:45:08.865Z,16.30
2018-06-03T18:47:43.102Z,17.70
2018-06-03T18:50:17.376Z,15.73
2018-06-03T18:52:51.672Z,12.43
2018-06-03T18:55:26.052Z,15.60
2018-06-03T18:58:00.382Z,14.50
2018-06-03T19:00:34.698Z,14.53
2018-06-03T19:03:08.645Z,14.47
2018-06-03T19:05:44.519Z,14.17
2018-06-03T19:08:18.675Z,16.73
2018-06-03T19:10:53.103Z,14.60
2018-06-03T19:13:27.554Z,14.03
2018-06-03T19:16:01.991Z,15.47
2018-06-03T19:18:36.342Z,16.37
2018-06-03T19:21:10.603Z,13.73
2018-06-03T19:23:44.940Z,15.27
2018-06-03T19:26:19.171Z,13.33
2018-06-03T19:28:53.503Z,13.77
2018-06-03T19:31:27.893Z,16.70
2018-06-03T19:34:02.177Z,16.03
2018-06-03T19:36:36.361Z,13.27
2018-06-03T19:39:10.684Z,12.23
2018-06-03T19:41:44.952Z,13.77
2018-06-03T19:44:19.223Z,12.87
2018-06-03T19:46:53.507Z,17.13
2018-06-03T19:49:27.903Z,14.50
2018-06-03T19:52:03.155Z,14.17
2018-06-03T19:54:37.608Z,18.37
2018-06-03T19:57:11.778Z,17.13
2018-06-03T19:59:47.075Z,14.43
2018-06-03T20:02:21.384Z,16.17
2018-06-03T20:04:55.743Z,16.53
2018-06-03T20:07:29.916Z,17.92
2018-06-03T20:10:04.190Z,17.17
2018-06-03T20:12:38.462Z,18.47
2018-06-03T20:15:12.736Z,16.20
2018-06-03T20:17:47.756Z,15.47
2018-06-03T20:20:22.015Z,18.07
2018-06-03T20:22:56.164Z,17.07
2018-06-03T20:25:30.739Z,15.97
2018-06-03T20:28:06.671Z,14.40
2018-06-03T20:30:41.126Z,16.73
2018-06-03T20:33:15.399Z,19.40
2018-06-03T20:35:49.767Z,17.13
2018-06-03T20:38:24.082Z,16.03
2018-06-03T20:40:58.305Z,18.17
2018-06-03T20:43:32.584Z,16.30
2018-06-03T20:46:06.737Z,16.07
2018-06-03T20:48:41.111Z,17.53
2018-06-03T20:51:15.430Z,17.93
2018-06-03T20:53:49.691Z,16.67
2018-06-03T20:56:23.984Z,17.43
2018-06-03T20:58:58.232Z,14.70
2018-06-03T21:01:32.759Z,15.20
2018-06-03T21:04:07.151Z,15.13
2018-06-03T21:06:41.474Z,18.30
2018-06-03T21:09:15.818Z,16.87
2018-06-03T21:11:50.185Z,19.10
2018-06-03T21:14:24.692Z,15.47
2018-06-03T21:16:59.038Z,19.70
2018-06-03T21:19:33.300Z,19.70
2018-06-03T21:22:07.570Z,18.03
2018-06-03T21:24:41.780Z,16.70
2018-06-03T21:27:16.102Z,17.80
2018-06-03T21:29:50.366Z,16.43
2018-06-03T21:32:24.632Z,18.73
2018-06-03T21:34:58.982Z,19.63
2018-06-03T21:37:33.369Z,14.53
2018-06-03T21:40:07.665Z,15.93
2018-06-03T21:42:42.032Z,18.37
2018-06-03T21:45:16.371Z,18.03
2018-06-03T21:47:50.787Z,18.93
2018-06-03T21:50:25.118Z,17.80
2018-06-03T21:52:59.518Z,19.23
2018-06-03T21:55:33.979Z,19.27
2018-06-03T21:58:08.582Z,16.53
2018-06-03T22:00:44.490Z,17.70
2018-06-03T22:03:18.666Z,17.60
2018-06-03T22:05:54.101Z,15.87
2018-06-03T22:08:28.413Z,15.57
2018-06-03T22:11:02.742Z,17.00
2018-06-03T22:13:37.088Z,17.07
2018-06-03T22:16:11.455Z,17.97
2018-06-03T22:18:45.728Z,17.83
2018-06-03T22:21:19.990Z,17.70
2018-06-03T22:23:54.230Z,18.43
2018-06-03T22:26:28.610Z,19.10
2018-06-03T22:29:02.847Z,18.03
2018-06-03T22:31:37.031Z,16.17
2018-06-03T22:34:11.370Z,18.87
2018-06-03T22:36:45.756Z,16.67
2018-06-03T22:39:19.931Z,16.67
2018-06-03T22:41:54.237Z,15.50
2018-06-03T22:44:28.563Z,17.90
2018-06-03T22:47:02.919Z,18.73
2018-06-03T22:49:37.298Z,16.73
2018-06-03T22:52:11.781Z,16.87
2018-06-03T22:54:46.033Z,19.13
2018-06-03T22:57:52.258Z,18.13
2018-06-03T23:00:29.568Z,17.40
2018-06-03T23:03:09.379Z,15.43
2018-06-03T23:05:43.636Z,18.13
2018-06-03T23:08:17.962Z,15.97
2018-06-03T23:10:52.174Z,16.47
2018-06-03T23:13:26.609Z,15.73
2018-06-03T23:16:01.059Z,20.33
2018-06-03T23:18:35.283Z,15.37
2018-06-03T23:21:09.534Z,19.57
2018-06-03T23:23:43.886Z,15.90
2018-06-03T23:26:18.122Z,18.40
2018-06-03T23:28:52.307Z,24.23
2018-06-03T23:31:26.729Z,18.67
2018-06-03T23:34:01.235Z,18.33
2018-06-03T23:36:35.461Z,18.00
2018-06-03T23:39:09.630Z,17.77
2018-06-03T23:41:43.898Z,18.27
2018-06-03T23:44:18.235Z,21.20
2018-06-03T23:46:52.651Z,19.10
2018-06-03T23:49:27.282Z,21.27
2018-06-03T23:52:01.739Z,19.60
2018-06-03T23:54:36.244Z,20.13
2018-06-03T23:57:10.395Z,21.90
2018-06-03T23:59:44.582Z,23.33
